Time;durP1;ratioP1;P1;durP2;ratioP2;P2;SDS_P1;SDS_P2;PMS_P1;PMS_P2;Temp;Humidity;BMP_temperature;BMP_pressure;BME280_temperature;BME280_humidity;BME280_pressure;Samples;Min_cycle;Max_cycle;Signal;HPM_P1;HPM_P2
2022/04/17 00:00:05;;;;;;;3.17;2.90;;;;;;;2.69;75.16;99754.50;1747400;80;21217;-74
2022/04/17 00:02:31;;;;;;;2.70;2.50;;;;;;;2.67;75.26;99756.24;1736124;80;21843;-74
2022/04/17 00:04:58;;;;;;;2.50;2.30;;;;;;;2.65;75.35;99760.58;1732089;80;21095;-73
2022/04/17 00:07:24;;;;;;;2.60;2.40;;;;;;;2.65;75.43;99759.28;1744327;80;21078;-74
2022/04/17 00:09:51;;;;;;;3.37;2.60;;;;;;;2.65;75.54;99759.28;1739869;80;21026;-73
2022/04/17 00:12:18;;;;;;;3.12;2.90;;;;;;;2.64;75.67;99758.42;1740084;80;21190;-74
2022/04/17 00:14:46;;;;;;;3.00;2.80;;;;;;;2.62;75.74;99752.78;1744734;81;21047;-73
2022/04/17 00:17:13;;;;;;;3.12;2.92;;;;;;;2.59;75.83;99758.41;1733470;81;21185;-73
2022/04/17 00:19:41;;;;;;;2.67;2.47;;;;;;;2.56;75.93;99759.70;1752526;80;21165;-74
2022/04/17 00:22:08;;;;;;;3.35;3.08;;;;;;;2.53;76.09;99760.98;1735969;80;21107;-73
2022/04/17 00:24:36;;;;;;;3.60;2.70;;;;;;;2.54;76.15;99761.44;1766234;80;21061;-73
2022/04/17 00:27:04;;;;;;;2.80;2.62;;;;;;;2.54;76.33;99762.73;1737402;81;21209;-74
2022/04/17 00:29:31;;;;;;;3.10;2.90;;;;;;;2.53;76.56;99768.77;1741464;81;21035;-74
2022/04/17 00:31:57;;;;;;;3.95;3.20;;;;;;;2.53;76.73;99764.87;1741255;80;21118;-73
2022/04/17 00:34:25;;;;;;;2.65;2.55;;;;;;;2.54;76.78;99761.44;1744604;81;21133;-74
2022/04/17 00:36:53;;;;;;;2.90;2.70;;;;;;;2.56;76.93;99760.99;1735071;80;21066;-74
2022/04/17 00:39:20;;;;;;;4.58;3.08;;;;;;;2.58;76.98;99760.56;1740569;80;21200;-74
2022/04/17 00:41:47;;;;;;;3.17;2.98;;;;;;;2.62;77.03;99765.77;1728387;81;21189;-75
2022/04/17 00:44:15;;;;;;;3.80;3.50;;;;;;;2.62;77.11;99763.16;1729177;81;21166;-73
2022/04/17 00:46:43;;;;;;;5.05;2.90;;;;;;;2.65;77.22;99768.38;1737492;81;21071;-73
2022/04/17 00:49:09;;;;;;;2.77;2.58;;;;;;;2.64;77.34;99762.73;1738909;80;20999;-74
2022/04/17 00:51:37;;;;;;;3.70;3.30;;;;;;;2.65;77.36;99756.69;1743371;80;21088;-73
2022/04/17 00:54:04;;;;;;;3.62;3.27;;;;;;;2.67;77.37;99760.14;1762137;78;21100;-74
2022/04/17 00:56:31;;;;;;;4.08;3.33;;;;;;;2.67;77.46;99756.24;1762445;80;21609;-74
2022/04/17 00:58:58;;;;;;;3.42;3.10;;;;;;;2.66;77.59;99759.73;1773375;80;21119;-73
2022/04/17 01:01:24;;;;;;;4.03;3.25;;;;;;;2.64;77.65;99751.04;1763740;80;21109;-74
2022/04/17 01:03:53;;;;;;;3.35;3.05;;;;;;;2.64;77.65;99758.83;1755734;80;21057;-74
2022/04/17 01:06:21;;;;;;;4.28;3.85;;;;;;;2.66;77.79;99754.53;1767958;80;21113;-73
2022/04/17 01:08:47;;;;;;;4.28;3.87;;;;;;;2.61;77.91;99755.81;1753044;80;21286;-75
2022/04/17 01:11:16;;;;;;;7.42;3.85;;;;;;;2.62;77.99;99755.38;1766396;79;21130;-73
2022/04/17 01:13:43;;;;;;;5.53;3.83;;;;;;;2.62;78.15;99755.38;1762590;79;21543;-74
2022/04/17 01:16:11;;;;;;;4.00;3.62;;;;;;;2.64;78.17;99754.94;1759658;80;21975;-74
2022/04/17 01:19:00;;;;;;;5.42;3.42;;;;;;;2.67;78.21;99748.45;1768933;80;21700;-74
2022/04/17 01:21:26;;;;;;;4.20;3.42;;;;;;;2.67;78.27;99744.55;1764730;80;21055;-74
2022/04/17 01:26:57;;;;;;;11.97;3.87;;;;;;;2.67;78.31;99756.24;1777513;80;21102;-74
2022/04/17 01:29:38;;;;;;;4.10;3.55;;;;;;;2.68;78.31;99750.20;1753170;80;21158;-74
2022/04/17 01:32:08;;;;;;;6.00;3.72;;;;;;;2.67;78.31;99749.30;1749499;80;21094;-73
2022/04/17 01:34:35;;;;;;;4.05;3.52;;;;;;;2.67;78.41;99740.66;1757956;80;21156;-73
2022/04/17 01:37:04;;;;;;;3.50;3.30;;;;;;;2.65;78.56;99742.39;1753561;80;21154;-72
2022/04/17 01:39:31;;;;;;;3.58;3.27;;;;;;;2.64;78.56;99749.73;1774600;79;20996;-75
2022/04/17 01:42:00;;;;;;;5.50;3.65;;;;;;;2.63;78.65;99744.13;1763327;79;21214;-73
2022/04/17 01:44:28;;;;;;;3.42;3.12;;;;;;;2.63;78.65;99741.09;1744112;80;21094;-75
2022/04/17 01:46:56;;;;;;;4.55;3.27;;;;;;;2.65;78.66;99741.09;1753675;80;21589;-74
2022/04/17 01:49:27;;;;;;;4.30;3.65;;;;;;;2.66;78.68;99734.61;1767951;80;21118;-75
2022/04/17 01:51:52;;;;;;;7.95;4.05;;;;;;;2.67;78.76;99738.06;1771545;80;21055;-75
2022/04/17 01:54:19;;;;;;;3.98;3.12;;;;;;;2.67;78.70;99741.95;1765937;80;22030;-75
2022/04/17 01:56:49;;;;;;;3.27;2.98;;;;;;;2.65;78.83;99737.20;1765508;79;21498;-75
2022/04/17 01:59:17;;;;;;;4.12;3.37;;;;;;;2.63;78.99;99732.00;1757854;80;21107;-75
2022/04/17 02:01:46;;;;;;;3.58;3.30;;;;;;;2.59;79.25;99733.73;1754621;80;21110;-75
2022/04/17 02:04:13;;;;;;;5.30;3.35;;;;;;;2.58;79.64;99733.72;1763166;80;21549;-75
2022/04/17 02:06:40;;;;;;;3.47;2.90;;;;;;;2.54;79.86;99734.56;1772719;80;22249;-76
2022/04/17 02:09:11;;;;;;;3.25;3.00;;;;;;;2.51;80.05;99736.75;1768138;80;21064;-75
2022/04/17 02:11:39;;;;;;;3.85;3.17;;;;;;;2.50;80.17;99735.00;1703804;82;21127;-74
2022/04/17 02:14:07;;;;;;;3.70;3.40;;;;;;;2.48;80.41;99727.64;1719837;82;21151;-75
2022/04/17 02:16:35;;;;;;;6.70;3.77;;;;;;;2.45;80.68;99730.67;1769083;80;20981;-75
2022/04/17 02:19:02;;;;;;;3.98;3.67;;;;;;;2.43;80.93;99730.67;1768501;80;21210;-75
2022/04/17 02:21:31;;;;;;;3.85;2.87;;;;;;;2.43;81.17;99735.86;1753732;80;21131;-74
2022/04/17 02:24:00;;;;;;;3.60;3.08;;;;;;;2.43;81.31;99733.70;1757225;80;21051;-75
2022/04/17 02:26:27;;;;;;;4.70;3.05;;;;;;;2.41;81.47;99733.70;1762184;80;21067;-75
2022/04/17 02:28:56;;;;;;;4.25;3.37;;;;;;;2.38;81.48;99724.59;1775487;80;21142;-75
2022/04/17 02:31:22;;;;;;;3.00;2.80;;;;;;;2.35;81.64;99731.08;1769827;80;21541;-75
2022/04/17 02:33:48;;;;;;;3.45;3.12;;;;;;;2.37;81.73;99725.45;1753656;80;21142;-72
2022/04/17 02:36:15;;;;;;;3.77;2.60;;;;;;;2.37;81.76;99721.55;1772655;80;21059;-72
2022/04/17 02:38:43;;;;;;;4.50;3.05;;;;;;;2.38;81.89;99717.66;1756590;80;20984;-72
2022/04/17 02:41:12;;;;;;;3.27;2.98;;;;;;;2.37;81.92;99713.77;1753646;80;21158;-72
2022/04/17 02:43:38;;;;;;;2.70;2.45;;;;;;;2.36;82.04;99718.55;1744779;80;21147;-73
2022/04/17 02:46:05;;;;;;;2.85;2.65;;;;;;;2.37;82.12;99722.86;1763544;79;21130;-73
2022/04/17 02:48:32;;;;;;;2.92;2.72;;;;;;;2.34;82.16;99712.05;1762418;80;21071;-74
2022/04/17 02:50:59;;;;;;;2.70;2.45;;;;;;;2.31;82.25;99715.93;1770626;80;21174;-74
2022/04/17 02:53:27;;;;;;;2.85;2.65;;;;;;;2.31;82.34;99713.77;1748293;80;21623;-74
2022/04/17 02:55:55;;;;;;;2.55;2.35;;;;;;;2.28;82.51;99709.87;1727730;81;21189;-74
2022/04/17 02:58:23;;;;;;;2.80;2.60;;;;;;;2.23;82.48;99709.41;1716819;81;38441;-74
2022/04/17 03:06:19;;;;;;;3.87;2.77;;;;;;;2.14;83.24;99705.95;1725514;81;21078;-74
2022/04/17 03:08:48;;;;;;;3.30;3.00;;;;;;;2.16;83.31;99709.41;1732081;81;21146;-74
2022/04/17 03:11:16;;;;;;;3.90;3.60;;;;;;;2.15;83.54;99707.25;1738814;81;21126;-73
2022/04/17 03:13:44;;;;;;;3.27;3.00;;;;;;;2.13;83.91;99710.25;1734000;81;21622;-74
2022/04/17 03:16:11;;;;;;;3.65;3.30;;;;;;;2.11;83.97;99709.39;1731494;81;21106;-74
2022/04/17 03:18:39;;;;;;;3.62;3.00;;;;;;;2.12;84.15;99713.73;1738247;81;21069;-74
2022/04/17 03:21:05;;;;;;;3.27;3.08;;;;;;;2.15;84.27;99715.04;1727490;80;21186;-73
2022/04/17 03:23:34;;;;;;;3.30;3.00;;;;;;;2.17;84.24;99713.72;1750676;80;21396;-74
2022/04/17 03:26:00;;;;;;;5.33;3.40;;;;;;;2.19;84.37;99710.28;1756222;80;21055;-74
2022/04/17 03:28:28;;;;;;;3.58;3.27;;;;;;;2.22;84.49;99714.62;1741227;80;21637;-73
2022/04/17 03:30:56;;;;;;;2.80;2.70;;;;;;;2.20;84.54;99717.22;1749575;80;21158;-74
2022/04/17 03:39:48;;;;;;;3.25;3.02;;;;;;;2.26;84.87;99714.20;1698063;83;21676;-73
2022/04/17 03:42:18;;;;;;;3.02;2.83;;;;;;;2.26;84.88;99713.76;1683219;83;21145;-74
2022/04/17 03:44:46;;;;;;;4.30;2.98;;;;;;;2.29;84.92;99711.61;1700605;83;21046;-74
2022/04/17 03:47:14;;;;;;;3.15;2.80;;;;;;;2.29;84.87;99716.80;1700590;82;21225;-73
2022/04/17 03:49:41;;;;;;;2.87;2.60;;;;;;;2.27;84.83;99722.41;1697276;83;21118;-73
2022/04/17 03:52:07;;;;;;;3.05;2.85;;;;;;;2.26;84.98;99718.09;1716078;82;21078;-73
2022/04/17 03:54:35;;;;;;;3.17;2.87;;;;;;;2.30;84.99;99723.71;1693840;83;21196;-73
2022/04/17 03:57:03;;;;;;;3.40;2.60;;;;;;;2.34;84.89;99728.06;1692405;83;21191;-73
2022/04/17 03:59:31;;;;;;;2.72;2.52;;;;;;;2.33;84.80;99728.48;1695415;83;21184;-73
2022/04/17 04:01:58;;;;;;;3.20;2.40;;;;;;;2.35;84.84;99728.48;1700676;82;21004;-73
2022/04/17 04:04:25;;;;;;;2.58;2.47;;;;;;;2.34;84.95;99730.22;1695294;82;21158;-73
2022/04/17 04:06:51;;;;;;;2.70;2.50;;;;;;;2.37;84.82;99734.54;1697902;83;21098;-74
2022/04/17 04:09:19;;;;;;;2.67;2.50;;;;;;;2.37;84.87;99730.64;1690613;84;21521;-73
2022/04/17 04:11:47;;;;;;;2.72;2.62;;;;;;;2.38;84.85;99733.69;1698913;83;21558;-73
2022/04/17 04:14:15;;;;;;;5.75;3.40;;;;;;;2.40;84.81;99731.95;1690181;83;21102;-73
2022/04/17 04:16:41;;;;;;;3.55;2.75;;;;;;;2.42;84.77;99738.01;1683392;83;21612;-74
2022/04/17 04:19:10;;;;;;;2.80;2.60;;;;;;;2.45;84.64;99727.63;1672603;84;22295;-73
2022/04/17 04:21:47;;;;;;;3.22;2.98;;;;;;;2.51;84.56;99743.23;1705489;82;21130;-73
2022/04/17 04:24:05;;;;;;;4.78;3.10;;;;;;;2.55;84.58;99738.47;1684725;84;21477;-73
2022/04/17 04:26:32;;;;;;;3.05;2.52;;;;;;;2.59;84.47;99736.77;1688647;83;21011;-73
2022/04/17 04:29:00;;;;;;;3.30;2.47;;;;;;;2.63;84.24;99741.53;1699065;83;21544;-74
2022/04/17 04:31:27;;;;;;;4.20;2.70;;;;;;;2.65;84.04;99751.48;1687729;83;23100;-73
2022/04/17 04:33:54;;;;;;;3.02;2.42;;;;;;;2.64;83.88;99749.73;1694429;83;21046;-74
2022/04/17 04:36:21;;;;;;;3.65;2.50;;;;;;;2.66;83.73;99744.14;1691891;83;21158;-73
2022/04/17 04:38:47;;;;;;;4.37;2.30;;;;;;;2.65;83.51;99760.58;1690601;83;21208;-74
2022/04/17 04:41:14;;;;;;;2.65;2.30;;;;;;;2.66;83.37;99753.23;1694016;83;21066;-73
2022/04/17 04:43:40;;;;;;;2.85;2.47;;;;;;;2.68;83.32;99752.80;1694037;83;21192;-74
2022/04/17 04:46:07;;;;;;;3.65;2.55;;;;;;;2.69;83.34;99763.60;1692761;83;21678;-74
2022/04/17 04:51:25;;;;;;;2.62;2.42;;;;;;;2.71;83.23;99764.05;1697487;82;21065;-74
2022/04/17 04:53:54;;;;;;;4.25;2.55;;;;;;;2.76;83.20;99756.27;1703147;82;21055;-74
2022/04/17 04:56:22;;;;;;;3.33;2.40;;;;;;;2.79;83.22;99756.25;1670075;83;21050;-74
2022/04/17 04:58:50;;;;;;;3.17;2.83;;;;;;;2.84;83.19;99761.05;1677741;83;21045;-74
2022/04/17 05:01:18;;;;;;;2.98;2.65;;;;;;;2.87;83.07;99757.56;1706696;83;22218;-73
2022/04/17 05:03:46;;;;;;;3.37;3.08;;;;;;;2.90;82.95;99757.13;1634804;85;21586;-73
2022/04/17 05:06:14;;;;;;;6.30;3.47;;;;;;;2.93;82.60;99762.33;1636168;85;22454;-74
2022/04/17 05:08:41;;;;;;;3.72;3.17;;;;;;;2.91;82.65;99757.58;1693813;82;21019;-74
2022/04/17 05:11:08;;;;;;;4.33;3.50;;;;;;;2.90;82.63;99756.27;1712484;82;21119;-74
2022/04/17 05:13:35;;;;;;;5.58;3.85;;;;;;;2.95;82.69;99755.39;1711773;82;22367;-74
2022/04/17 05:16:02;;;;;;;3.62;3.00;;;;;;;3.06;82.60;99761.02;1698174;82;21125;-74
2022/04/17 05:18:31;;;;;;;7.53;3.70;;;;;;;3.08;82.24;99752.81;1692402;83;21047;-74
2022/04/17 05:20:57;;;;;;;4.30;3.37;;;;;;;3.06;81.95;99757.13;1692398;82;21489;-74
2022/04/17 05:23:29;;;;;;;3.20;2.90;;;;;;;3.00;81.84;99755.41;1664407;84;21561;-74
2022/04/17 05:26:00;;;;;;;4.35;2.92;;;;;;;2.98;81.91;99754.55;1693122;83;21193;-74
2022/04/17 05:28:30;;;;;;;5.90;3.12;;;;;;;2.95;82.00;99754.54;1717118;82;21605;-74
2022/04/17 05:30:58;;;;;;;3.05;2.60;;;;;;;2.93;82.11;99761.03;1724953;81;21063;-74
2022/04/17 05:33:24;;;;;;;2.47;2.27;;;;;;;2.93;81.80;99764.08;1714961;81;22037;-74
2022/04/17 05:35:53;;;;;;;2.35;1.90;;;;;;;2.89;81.71;99767.52;1715051;81;21043;-74
2022/04/17 05:38:22;;;;;;;1.70;1.60;;;;;;;2.88;81.35;99771.00;1713894;81;21204;-74
2022/04/17 05:40:51;;;;;;;1.72;1.62;;;;;;;2.83;81.12;99775.33;1720268;81;21090;-74
2022/04/17 05:43:18;;;;;;;1.45;1.35;;;;;;;2.77;81.17;99776.17;1722990;81;21075;-74
2022/04/17 05:45:45;;;;;;;1.72;1.62;;;;;;;2.75;81.29;99783.11;1713908;81;21109;-73
2022/04/17 05:48:11;;;;;;;1.60;1.50;;;;;;;2.75;81.44;99776.61;1720266;82;21071;-72
2022/04/17 05:50:38;;;;;;;1.98;1.40;;;;;;;2.76;81.38;99783.55;1716550;81;21151;-74
2022/04/17 05:53:04;;;;;;;1.37;1.30;;;;;;;2.74;81.31;99790.45;1716657;81;21054;-74
2022/04/17 05:55:31;;;;;;;1.62;1.30;;;;;;;2.72;81.31;99788.30;1717402;81;21070;-74
2022/04/17 05:57:59;;;;;;;1.40;1.30;;;;;;;2.71;81.25;99785.28;1709334;81;21118;-74
2022/04/17 06:00:25;;;;;;;1.20;1.20;;;;;;;2.71;81.05;99783.98;1722355;81;21018;-73
2022/04/17 06:02:52;;;;;;;1.30;1.20;;;;;;;2.69;80.91;99784.38;1715932;82;21278;-74
2022/04/17 06:05:19;;;;;;;1.40;1.30;;;;;;;2.65;80.67;99790.45;1722241;81;21026;-74
2022/04/17 06:07:46;;;;;;;1.30;1.30;;;;;;;2.59;80.66;99789.58;1716841;81;21220;-74
2022/04/17 06:10:14;;;;;;;1.42;1.32;;;;;;;2.53;80.61;99790.86;1720184;81;21227;-75
2022/04/17 06:12:41;;;;;;;1.30;1.30;;;;;;;2.50;80.67;99793.44;1724722;81;21132;-72
2022/04/17 06:15:09;;;;;;;1.50;1.40;;;;;;;2.49;80.68;99794.32;1731492;81;21145;-75
2022/04/17 06:17:40;;;;;;;1.50;1.40;;;;;;;2.46;80.60;99793.45;1722454;81;21103;-74
2022/04/17 06:20:10;;;;;;;1.62;1.50;;;;;;;2.39;80.53;99793.42;1716644;81;22105;-76
2022/04/17 06:22:36;;;;;;;1.60;1.60;;;;;;;2.37;80.60;99792.97;1721065;81;21051;-76
2022/04/17 06:25:05;;;;;;;1.98;1.87;;;;;;;2.38;80.59;99797.31;1715485;81;21066;-75
2022/04/17 06:27:42;;;;;;;4.97;2.45;;;;;;;2.40;80.52;99796.88;1723256;81;21139;-75
2022/04/17 06:30:12;;;;;;;3.92;3.00;;;;;;;2.38;80.43;99798.61;1721633;81;21034;-76
2022/04/17 06:32:39;;;;;;;5.28;3.35;;;;;;;2.30;80.31;99799.86;1717267;81;21063;-75
2022/04/17 06:35:08;;;;;;;7.45;2.67;;;;;;;2.22;80.40;99798.56;1723029;82;21319;-75
2022/04/17 06:37:57;;;;;;;8.10;3.08;;;;;;;2.21;80.43;99794.22;1717938;82;21174;-75
2022/04/17 06:40:29;;;;;;;6.25;2.92;;;;;;;2.21;80.48;99794.22;1716802;82;21549;-75
2022/04/17 06:42:58;;;;;;;3.47;3.02;;;;;;;2.21;80.62;99797.25;1719775;82;21522;-75
2022/04/17 06:45:25;;;;;;;7.40;3.45;;;;;;;2.22;80.84;99801.16;1718006;82;21563;-75
2022/04/17 06:47:52;;;;;;;3.62;3.12;;;;;;;2.23;80.77;99800.72;1719883;81;21585;-75
2022/04/17 06:50:19;;;;;;;3.67;3.10;;;;;;;2.26;80.66;99798.58;1719355;82;21608;-75
2022/04/17 06:52:46;;;;;;;10.25;3.55;;;;;;;2.25;80.54;99799.42;1681931;83;22172;-75
2022/04/17 06:55:13;;;;;;;6.40;3.77;;;;;;;2.26;80.56;99806.36;1701082;83;21076;-75
2022/04/17 06:57:47;;;;;;;5.30;3.60;;;;;;;2.26;80.61;99803.77;1705411;83;21283;-75
2022/04/17 07:00:14;;;;;;;6.50;4.25;;;;;;;2.28;80.71;99805.94;1701076;83;21566;-74
2022/04/17 07:02:42;;;;;;;6.50;4.20;;;;;;;2.29;80.83;99806.38;1716243;82;21068;-75
2022/04/17 07:05:09;;;;;;;6.30;3.90;;;;;;;2.27;80.96;99806.78;1712227;82;21213;-76
2022/04/17 07:07:37;;;;;;;8.15;4.08;;;;;;;2.27;81.13;99813.27;1708187;82;21526;-75
2022/04/17 07:10:07;;;;;;;9.50;3.95;;;;;;;2.27;81.12;99810.67;1716532;82;21138;-75
2022/04/17 07:12:34;;;;;;;6.78;3.55;;;;;;;2.22;81.00;99811.98;1721582;82;21526;-75
2022/04/17 07:15:04;;;;;;;6.20;4.30;;;;;;;2.23;81.12;99809.80;1704642;83;21643;-75
2022/04/17 07:17:37;;;;;;;8.75;3.75;;;;;;;2.25;81.33;99813.27;1703559;82;21144;-75
2022/04/17 07:20:07;;;;;;;9.93;4.25;;;;;;;2.30;81.54;99805.50;1724376;82;20999;-75
2022/04/17 07:22:34;;;;;;;3.95;3.37;;;;;;;2.36;81.64;99807.69;1702105;82;21517;-74
2022/04/17 07:25:01;;;;;;;4.53;3.22;;;;;;;2.43;81.70;99817.66;1696883;82;21478;-75
2022/04/17 07:27:38;;;;;;;2.80;2.60;;;;;;;2.48;81.67;99818.98;1707213;82;21042;-75
2022/04/17 07:30:16;;;;;;;4.67;2.77;;;;;;;2.50;81.70;99811.62;1728748;81;21175;-75
2022/04/17 07:32:52;;;;;;;1.90;1.80;;;;;;;2.47;81.60;99813.34;1713469;81;21070;-75
2022/04/17 07:35:20;;;;;;;2.00;1.90;;;;;;;2.43;81.73;99809.87;1725420;81;21699;-75
2022/04/17 07:37:55;;;;;;;1.80;1.70;;;;;;;2.41;81.87;99810.31;1718965;81;21000;-76
2022/04/17 07:40:26;;;;;;;1.85;1.75;;;;;;;2.40;81.83;99802.07;1722795;81;21090;-75
2022/04/17 07:42:56;;;;;;;1.72;1.62;;;;;;;2.41;82.07;99809.01;1724400;81;21172;-74
2022/04/17 07:45:23;;;;;;;1.50;1.50;;;;;;;2.51;82.25;99804.72;1719583;81;21047;-74
2022/04/17 07:47:50;;;;;;;1.40;1.40;;;;;;;2.69;83.08;99801.27;1720356;81;21047;-74
2022/04/17 07:50:23;;;;;;;2.25;1.60;;;;;;;2.90;84.11;99796.11;1723651;81;21048;-75
2022/04/17 07:52:51;;;;;;;1.75;1.65;;;;;;;3.10;84.46;99780.97;1718549;81;21518;-75
2022/04/17 07:55:17;;;;;;;1.90;1.80;;;;;;;3.27;84.14;99790.92;1720434;81;21899;-75
2022/04/17 08:00:21;;;;;;;1.98;1.87;;;;;;;3.72;84.05;99788.27;1722940;81;21070;-74
2022/04/17 08:03:08;;;;;;;2.33;2.22;;;;;;;3.91;83.83;99782.56;1722954;81;21074;-74
2022/04/17 08:05:38;;;;;;;2.00;1.90;;;;;;;3.99;82.59;99781.25;1719950;81;21110;-74
2022/04/17 08:08:08;;;;;;;1.95;1.85;;;;;;;3.88;81.75;99782.16;1716765;81;21039;-75
2022/04/17 08:10:36;;;;;;;1.80;1.70;;;;;;;3.78;80.98;99791.28;1716544;81;21070;-75
2022/04/17 08:13:05;;;;;;;2.00;1.90;;;;;;;3.66;80.77;99794.78;1724193;81;21073;-75
2022/04/17 08:15:32;;;;;;;2.30;2.20;;;;;;;3.59;80.95;99783.52;1722226;82;21162;-75
2022/04/17 08:18:01;;;;;;;2.20;2.10;;;;;;;3.56;81.01;99779.61;1721663;81;21030;-74
2022/04/17 08:20:28;;;;;;;2.50;2.30;;;;;;;3.59;81.21;99777.45;1731546;81;21580;-72
2022/04/17 08:22:55;;;;;;;2.50;2.30;;;;;;;3.69;81.36;99783.06;1723561;81;21140;-73
2022/04/17 08:25:22;;;;;;;3.20;3.00;;;;;;;3.82;81.92;99776.95;1714887;82;21339;-74
2022/04/17 08:27:50;;;;;;;4.33;3.52;;;;;;;3.95;82.24;99779.09;1713703;81;21103;-73
2022/04/17 08:30:24;;;;;;;3.70;3.40;;;;;;;4.04;81.84;99775.14;1729483;81;21101;-73
2022/04/17 08:32:51;;;;;;;2.92;2.75;;;;;;;4.16;81.74;99775.97;1720001;81;21251;-74
2022/04/17 08:35:18;;;;;;;2.15;2.05;;;;;;;4.33;81.35;99776.75;1721022;81;21164;-71
2022/04/17 08:37:44;;;;;;;2.42;2.27;;;;;;;4.49;81.18;99776.25;1721788;82;21117;-71
2022/04/17 08:40:12;;;;;;;2.80;2.60;;;;;;;4.61;79.99;99776.16;1716643;81;20990;-72
2022/04/17 08:42:39;;;;;;;2.22;2.05;;;;;;;4.64;78.48;99773.55;1722199;81;21050;-73
2022/04/17 08:45:09;;;;;;;2.37;1.90;;;;;;;4.64;77.69;99775.30;1713700;81;21161;-74
2022/04/17 08:47:39;;;;;;;1.35;1.35;;;;;;;4.66;76.79;99770.93;1708196;82;21532;-73
2022/04/17 08:50:14;;;;;;;1.40;1.37;;;;;;;4.72;75.39;99764.35;1719885;81;21545;-73
2022/04/17 08:52:43;;;;;;;1.50;1.50;;;;;;;4.82;74.17;99763.86;1707592;81;21121;-73
2022/04/17 08:55:10;;;;;;;1.92;1.82;;;;;;;4.97;73.84;99756.36;1712079;82;21126;-73
2022/04/17 08:57:37;;;;;;;1.98;1.77;;;;;;;5.25;75.67;99755.69;1703533;82;21262;-73
2022/04/17 09:00:08;;;;;;;1.42;1.35;;;;;;;5.49;73.24;99762.41;1704284;82;21039;-73
2022/04/17 09:02:35;;;;;;;1.80;1.70;;;;;;;5.57;71.38;99763.20;1728905;82;21090;-72
2022/04/17 09:05:10;;;;;;;5.45;2.45;;;;;;;5.51;70.86;99769.78;1710805;82;21126;-74
2022/04/17 09:07:50;;;;;;;2.35;2.15;;;;;;;5.34;70.22;99770.39;1703371;82;21078;-74
2022/04/17 09:10:27;;;;;;;2.30;2.10;;;;;;;5.05;70.99;99780.64;1683656;83;21202;-74
2022/04/17 09:13:01;;;;;;;3.10;2.33;;;;;;;4.87;73.02;99779.47;1697749;82;21044;-74
2022/04/17 09:15:36;;;;;;;5.42;2.92;;;;;;;4.87;73.37;99780.77;1698153;82;21055;-74
2022/04/17 09:18:07;;;;;;;5.55;2.80;;;;;;;4.91;73.37;99782.47;1715035;82;21036;-74
2022/04/17 09:20:35;;;;;;;5.17;3.67;;;;;;;4.97;73.14;99779.83;1714958;82;21384;-74
2022/04/17 09:23:02;;;;;;;6.75;3.55;;;;;;;5.05;72.84;99770.20;1706267;82;22104;-74
2022/04/17 09:25:30;;;;;;;7.20;3.08;;;;;;;5.11;71.99;99764.95;1720434;82;21152;-74
2022/04/17 09:28:05;;;;;;;3.77;2.62;;;;;;;5.21;72.57;99769.20;1722017;82;21211;-73
2022/04/17 09:30:34;;;;;;;4.90;2.50;;;;;;;5.38;72.15;99766.89;1712495;82;21113;-74
2022/04/17 09:33:12;;;;;;;2.85;2.35;;;;;;;5.48;71.49;99759.39;1696464;82;21106;-74
2022/04/17 09:35:39;;;;;;;4.20;2.52;;;;;;;5.59;71.64;99760.13;1706421;83;21438;-73
2022/04/17 09:38:08;;;;;;;2.65;2.40;;;;;;;5.70;70.65;99773.09;1715002;82;21106;-75
2022/04/17 09:40:36;;;;;;;2.95;2.50;;;;;;;5.68;70.70;99763.52;1712183;83;21414;-74
2022/04/17 09:43:17;;;;;;;3.17;1.87;;;;;;;5.69;70.69;99769.19;1710429;83;21094;-75
2022/04/17 09:46:09;;;;;;;2.27;2.12;;;;;;;5.63;70.10;99764.91;1711177;83;21640;-75
2022/04/17 09:48:40;;;;;;;2.00;1.90;;;;;;;5.57;70.19;99767.12;1683609;84;22007;-74
2022/04/17 09:51:22;;;;;;;7.30;2.00;;;;;;;5.50;70.27;99772.43;1671256;84;21115;-74
2022/04/17 09:54:06;;;;;;;2.33;2.12;;;;;;;5.40;70.72;99769.04;1688358;83;21102;-75
2022/04/17 09:56:40;;;;;;;2.20;2.10;;;;;;;5.37;70.83;99762.54;1713964;83;21560;-74
2022/04/17 09:59:20;;;;;;;1.70;1.60;;;;;;;5.36;70.12;99764.71;1666572;84;21020;-74
2022/04/17 10:01:52;;;;;;;2.02;1.85;;;;;;;5.37;69.22;99761.23;1697912;82;22352;-74
2022/04/17 10:04:21;;;;;;;1.90;1.80;;;;;;;5.35;68.77;99760.39;1721364;82;21085;-74
2022/04/17 10:06:50;;;;;;;2.10;1.90;;;;;;;5.36;68.76;99760.38;1712453;82;21043;-74
2022/04/17 10:09:19;;;;;;;2.52;1.75;;;;;;;5.43;68.04;99762.49;1715452;82;22231;-74
2022/04/17 10:11:48;;;;;;;1.90;1.80;;;;;;;5.47;68.08;99758.95;1712987;83;20920;-75
2022/04/17 10:14:16;;;;;;;1.90;1.80;;;;;;;5.55;68.46;99766.27;1712302;83;21593;-75
2022/04/17 10:16:48;;;;;;;1.77;1.67;;;;;;;5.58;67.58;99759.72;1713897;83;21117;-75
2022/04/17 10:19:17;;;;;;;1.95;1.70;;;;;;;5.52;65.69;99760.23;1710418;82;21110;-74
2022/04/17 10:21:46;;;;;;;1.77;1.67;;;;;;;5.42;66.11;99752.06;1712873;83;21129;-73
2022/04/17 10:24:14;;;;;;;1.92;1.82;;;;;;;5.28;66.14;99753.48;1711991;83;21058;-75
2022/04/17 10:26:47;;;;;;;2.00;1.90;;;;;;;5.20;66.58;99749.20;1712061;82;21812;-75
2022/04/17 10:29:43;;;;;;;1.80;1.70;;;;;;;5.20;67.26;99749.20;1713492;83;21600;-74
2022/04/17 10:32:43;;;;;;;1.70;1.60;;;;;;;5.15;66.64;99749.69;1683568;83;21151;-74
2022/04/17 10:35:49;;;;;;;1.70;1.60;;;;;;;5.08;67.12;99757.14;1689455;83;22881;-75
2022/04/17 10:38:25;;;;;;;1.98;1.87;;;;;;;5.08;67.66;99758.45;1703691;83;21046;-75
2022/04/17 10:40:59;;;;;;;1.60;1.50;;;;;;;5.07;67.50;99760.62;1714774;83;21164;-74
2022/04/17 10:43:34;;;;;;;1.80;1.70;;;;;;;5.05;66.98;99759.77;1711046;82;21076;-75
2022/04/17 10:46:12;;;;;;;;;;;;;;;5.06;66.71;99758.91;1712274;83;21066;-75
2022/04/17 10:48:51;;;;;;;1.72;1.62;;;;;;;5.04;65.55;99755.42;1710763;82;20453;-74
2022/04/17 10:51:31;;;;;;;3.85;1.75;;;;;;;5.03;66.16;99755.02;1715946;82;21113;-74
2022/04/17 10:54:05;;;;;;;1.77;1.67;;;;;;;5.05;65.31;99744.58;1719335;81;21242;-76
2022/04/17 10:56:40;;;;;;;1.90;1.80;;;;;;;5.07;65.94;99744.97;1718784;82;21129;-74
2022/04/17 10:59:17;;;;;;;2.33;2.12;;;;;;;5.13;65.89;99746.23;1710933;83;21007;-75
2022/04/17 11:01:56;;;;;;;2.58;1.90;;;;;;;5.19;65.52;99748.80;1700067;82;21156;-75
2022/04/17 11:04:26;;;;;;;2.77;2.58;;;;;;;5.29;65.71;99746.09;1697839;83;21064;-75
2022/04/17 11:07:09;;;;;;;2.40;2.25;;;;;;;5.31;65.18;99746.93;1700221;82;21113;-75
2022/04/17 11:09:40;;;;;;;2.12;2.02;;;;;;;5.37;65.58;99749.05;1712837;82;21070;-75
2022/04/17 11:12:19;;;;;;;2.45;1.82;;;;;;;5.55;65.83;99749.31;1694145;82;21593;-73
2022/04/17 11:15:11;;;;;;;2.15;2.05;;;;;;;5.78;65.12;99746.88;1707560;82;21059;-73
2022/04/17 11:17:39;;;;;;;3.58;1.75;;;;;;;5.98;64.94;99739.29;1707823;82;21611;-73
2022/04/17 11:20:07;;;;;;;1.80;1.70;;;;;;;6.14;64.50;99739.53;1685753;83;21245;-73
2022/04/17 11:22:37;;;;;;;3.58;1.92;;;;;;;6.30;64.14;99742.37;1684333;83;21062;-73
2022/04/17 11:25:11;;;;;;;1.90;1.80;;;;;;;6.49;64.88;99730.34;1699389;82;21059;-72
2022/04/17 11:27:52;;;;;;;2.08;1.98;;;;;;;6.75;65.89;99727.32;1706245;82;21114;-73
2022/04/17 11:30:27;;;;;;;2.10;2.00;;;;;;;6.87;62.53;99724.95;1701341;82;21070;-73
2022/04/17 11:32:54;;;;;;;2.20;2.00;;;;;;;6.68;61.79;99731.78;1706805;82;21121;-73
2022/04/17 11:35:25;;;;;;;1.52;1.42;;;;;;;6.33;61.02;99738.38;1703490;82;21676;-73
2022/04/17 11:38:01;;;;;;;2.87;1.57;;;;;;;6.00;62.28;99733.59;1706431;82;21067;-74
2022/04/17 11:40:31;;;;;;;2.00;1.90;;;;;;;5.64;63.79;99742.27;1720156;81;21112;-74
2022/04/17 11:43:18;;;;;;;1.82;1.72;;;;;;;5.34;66.08;99741.69;1721214;82;21642;-73
2022/04/17 11:45:46;;;;;;;3.25;1.60;;;;;;;5.04;67.07;99744.99;1709938;81;21201;-73
2022/04/17 11:48:15;;;;;;;3.15;1.60;;;;;;;4.81;68.19;99751.72;1719196;81;21088;-73
2022/04/17 11:50:44;;;;;;;2.05;1.65;;;;;;;4.70;69.09;99749.17;1724369;81;21035;-74
2022/04/17 11:53:15;;;;;;;1.42;1.32;;;;;;;4.72;69.93;99747.41;1719681;81;21070;-74
2022/04/17 11:55:46;;;;;;;1.80;1.70;;;;;;;4.84;69.88;99748.64;1728001;81;21165;-74
2022/04/17 11:58:26;;;;;;;1.70;1.60;;;;;;;4.97;70.22;99748.53;1718946;81;21377;-74
2022/04/17 12:00:59;;;;;;;1.80;1.70;;;;;;;5.08;69.83;99743.22;1720255;82;20987;-73
2022/04/17 12:03:37;;;;;;;2.00;1.90;;;;;;;5.21;69.13;99739.20;1716080;82;21168;-73
2022/04/17 12:06:06;;;;;;;1.92;1.82;;;;;;;5.37;69.27;99740.36;1724577;82;20987;-75
2022/04/17 12:08:38;;;;;;;3.10;2.10;;;;;;;5.58;69.58;99745.78;1721760;82;20943;-74
2022/04/17 12:11:06;;;;;;;4.78;2.47;;;;;;;5.82;69.23;99735.53;1718002;81;21197;-74
2022/04/17 12:13:35;;;;;;;5.22;2.92;;;;;;;6.02;68.75;99745.77;1722108;81;21116;-74